createdAt,value
2024-02-11T00:02:47.466Z,41.30
2024-02-11T00:05:50.132Z,42.70
2024-02-11T00:08:52.000Z,36.90
2024-02-11T00:11:53.052Z,38.20
2024-02-11T00:14:54.076Z,41.70
2024-02-11T00:17:55.180Z,57.00
2024-02-11T00:20:56.407Z,58.90
2024-02-11T00:23:59.544Z,71.10
2024-02-11T00:27:00.562Z,79.40
2024-02-11T00:30:01.958Z,69.50
2024-02-11T00:33:03.078Z,58.00
2024-02-11T00:36:06.284Z,45.50
2024-02-11T00:39:07.329Z,45.40
2024-02-11T00:42:08.321Z,46.00
2024-02-11T00:45:12.834Z,45.20
2024-02-11T00:48:13.914Z,45.10
2024-02-11T00:51:15.191Z,41.40
2024-02-11T00:54:16.170Z,43.30
2024-02-11T00:57:20.527Z,44.00
2024-02-11T01:00:23.012Z,44.20
2024-02-11T01:03:24.006Z,49.20
2024-02-11T01:06:25.880Z,44.90
2024-02-11T01:09:26.956Z,45.80
2024-02-11T01:12:29.053Z,51.10
2024-02-11T01:15:30.057Z,75.60
2024-02-11T01:18:31.069Z,106.80
2024-02-11T01:21:32.041Z,65.80
2024-02-11T01:24:34.943Z,55.30
2024-02-11T01:27:38.167Z,42.20
2024-02-11T01:30:39.536Z,38.60
2024-02-11T01:33:40.639Z,38.20
2024-02-11T01:36:42.141Z,36.50
2024-02-11T01:39:43.087Z,36.80
2024-02-11T01:42:48.551Z,34.50
2024-02-11T01:45:49.888Z,36.20
2024-02-11T01:48:51.241Z,38.30
2024-02-11T01:51:53.512Z,38.80
2024-02-11T01:54:55.381Z,42.40
2024-02-11T01:57:57.469Z,37.30
2024-02-11T02:00:59.607Z,44.20
2024-02-11T02:04:00.774Z,46.60
2024-02-11T02:07:03.072Z,43.10
2024-02-11T02:10:05.483Z,40.80
2024-02-11T02:13:06.541Z,39.00
2024-02-11T02:16:08.425Z,40.60
2024-02-11T02:19:10.724Z,36.50
2024-02-11T02:22:11.938Z,35.80
2024-02-11T02:25:12.945Z,36.40
2024-02-11T02:28:13.913Z,34.10
2024-02-11T02:31:14.925Z,30.30
2024-02-11T02:34:16.084Z,33.10
2024-02-11T02:37:17.249Z,30.60
2024-02-11T02:40:18.229Z,30.60
2024-02-11T02:43:19.390Z,34.40
2024-02-11T02:46:20.371Z,36.20
2024-02-11T02:49:21.415Z,36.30
2024-02-11T02:52:22.472Z,44.60
2024-02-11T02:55:23.435Z,61.30
2024-02-11T02:58:24.426Z,57.90
2024-02-11T03:01:28.105Z,54.00
2024-02-11T03:04:29.089Z,51.30
2024-02-11T03:07:30.234Z,43.20
2024-02-11T03:10:31.250Z,52.60
2024-02-11T03:13:32.296Z,46.90
2024-02-11T03:16:33.422Z,42.50
2024-02-11T03:19:34.631Z,37.50
2024-02-11T03:22:35.911Z,35.50
2024-02-11T03:25:36.977Z,37.70
2024-02-11T03:28:41.466Z,36.20
2024-02-11T03:31:42.740Z,39.70
2024-02-11T03:34:43.831Z,41.30
2024-02-11T03:37:44.924Z,36.40
2024-02-11T03:40:45.959Z,36.10
2024-02-11T03:43:47.107Z,36.90
2024-02-11T03:46:48.175Z,35.40
2024-02-11T03:49:50.698Z,38.30
2024-02-11T03:52:52.104Z,46.80
2024-02-11T03:55:53.555Z,36.70
2024-02-11T03:58:55.921Z,33.50
2024-02-11T04:02:04.873Z,37.60
2024-02-11T04:05:06.692Z,37.00
2024-02-11T04:08:09.006Z,35.70
2024-02-11T04:11:11.003Z,33.50
2024-02-11T04:14:12.839Z,37.70
2024-02-11T04:17:14.100Z,35.30
2024-02-11T04:20:25.610Z,32.90
2024-02-11T04:23:28.385Z,43.70
2024-02-11T04:26:29.415Z,37.00
2024-02-11T04:29:30.602Z,35.90
2024-02-11T04:32:31.637Z,37.70
2024-02-11T04:35:34.217Z,39.70
2024-02-11T04:38:35.650Z,42.90
2024-02-11T04:41:37.811Z,42.10
2024-02-11T04:44:38.835Z,41.60
2024-02-11T04:47:41.594Z,40.50
2024-02-11T04:50:44.655Z,47.40
2024-02-11T04:53:47.685Z,37.10
2024-02-11T04:56:48.678Z,39.70
2024-02-11T04:59:49.734Z,34.70
2024-02-11T05:02:55.787Z,40.60
2024-02-11T05:05:58.108Z,40.90
2024-02-11T05:09:01.325Z,38.90
2024-02-11T05:12:02.376Z,41.90
2024-02-11T05:15:04.377Z,55.10
2024-02-11T05:18:06.486Z,364.60
2024-02-11T05:21:07.567Z,227.10
2024-02-11T05:24:08.572Z,129.00
2024-02-11T05:27:09.978Z,223.30
2024-02-11T05:30:11.878Z,188.70
2024-02-11T05:33:13.802Z,152.90
2024-02-11T05:36:14.904Z,148.10
2024-02-11T05:39:19.531Z,127.10
2024-02-11T05:42:21.276Z,171.70
2024-02-11T05:45:22.826Z,140.20
2024-02-11T05:48:24.208Z,150.90
2024-02-11T05:51:25.620Z,150.90
2024-02-11T05:54:29.194Z,264.30
2024-02-11T05:57:30.285Z,278.60
2024-02-11T06:00:32.041Z,185.60
2024-02-11T06:03:33.769Z,145.90
2024-02-11T06:06:34.792Z,117.40
2024-02-11T06:09:35.737Z,94.50
2024-02-11T06:12:37.667Z,100.90
2024-02-11T06:15:41.116Z,50.10
2024-02-11T06:18:42.582Z,31.80
2024-02-11T06:21:44.333Z,24.10
2024-02-11T06:24:46.372Z,20.50
2024-02-11T06:27:50.646Z,17.50
2024-02-11T06:30:53.100Z,20.50
2024-02-11T06:33:54.270Z,21.10
2024-02-11T06:36:55.280Z,17.80
2024-02-11T06:39:56.252Z,16.70
2024-02-11T06:42:59.874Z,19.20
2024-02-11T06:46:00.814Z,15.60
2024-02-11T06:49:01.943Z,18.50
2024-02-11T06:52:03.547Z,17.40
2024-02-11T06:55:10.661Z,24.60
2024-02-11T06:58:12.454Z,16.90
2024-02-11T07:01:13.910Z,16.80
2024-02-11T07:04:15.083Z,14.80
2024-02-11T07:07:17.423Z,19.90
2024-02-11T07:10:18.521Z,14.70
2024-02-11T07:13:19.564Z,14.10
2024-02-11T07:16:22.326Z,16.40
2024-02-11T07:19:25.428Z,14.40
2024-02-11T07:22:26.386Z,14.30
2024-02-11T07:25:30.779Z,14.60
2024-02-11T07:28:31.900Z,23.60
2024-02-11T07:31:34.412Z,49.70
2024-02-11T07:34:35.686Z,20.10
2024-02-11T07:37:36.774Z,16.50
2024-02-11T07:40:37.836Z,17.60
2024-02-11T07:43:39.704Z,15.90
2024-02-11T07:46:40.840Z,17.10
2024-02-11T07:49:44.801Z,18.60
2024-02-11T07:52:47.282Z,14.30
2024-02-11T07:55:48.799Z,36.70
2024-02-11T07:58:49.952Z,32.40
2024-02-11T08:01:51.121Z,21.40
2024-02-11T08:04:52.306Z,45.60
2024-02-11T08:07:53.566Z,31.50
2024-02-11T08:10:55.049Z,23.90
2024-02-11T08:13:56.231Z,25.90
2024-02-11T08:16:57.425Z,19.40
2024-02-11T08:19:58.518Z,18.80
2024-02-11T08:22:59.912Z,14.70
2024-02-11T08:26:02.053Z,33.70
2024-02-11T08:29:04.957Z,20.80
2024-02-11T08:32:06.319Z,19.30
2024-02-11T08:35:09.480Z,19.20
2024-02-11T08:38:11.147Z,20.40
2024-02-11T08:41:12.417Z,17.90
2024-02-11T08:44:14.558Z,15.50
2024-02-11T08:47:16.364Z,22.10
2024-02-11T08:50:18.105Z,17.80
2024-02-11T08:53:19.656Z,18.50
2024-02-11T08:56:21.286Z,22.10
2024-02-11T08:59:22.911Z,19.50
2024-02-11T09:02:29.591Z,20.20
2024-02-11T09:05:35.109Z,12.60
2024-02-11T09:08:36.151Z,14.20
2024-02-11T09:11:37.294Z,12.80
2024-02-11T09:14:39.825Z,13.90
2024-02-11T09:17:44.012Z,19.30
2024-02-11T09:20:45.078Z,18.50
2024-02-11T09:23:46.084Z,53.20
2024-02-11T09:26:53.337Z,32.50
2024-02-11T09:29:54.399Z,27.90
2024-02-11T09:32:56.202Z,93.50
2024-02-11T09:35:58.029Z,22.80
2024-02-11T09:38:59.018Z,25.00
2024-02-11T09:42:00.164Z,43.40
2024-02-11T09:45:03.999Z,35.50
2024-02-11T09:48:08.188Z,66.00
2024-02-11T09:51:11.020Z,26.50
2024-02-11T09:54:13.906Z,38.80
2024-02-11T09:57:14.984Z,26.30
2024-02-11T10:00:18.465Z,19.30
2024-02-11T10:03:24.808Z,14.50
2024-02-11T10:06:37.950Z,40.60
2024-02-11T10:09:39.130Z,39.70
2024-02-11T10:12:42.224Z,21.80
2024-02-11T10:15:44.548Z,28.30
2024-02-11T10:18:45.580Z,78.00
2024-02-11T10:21:48.072Z,69.00
2024-02-11T10:24:50.000Z,33.90
2024-02-11T10:27:51.510Z,43.10
2024-02-11T10:30:55.650Z,32.10
2024-02-11T10:33:58.168Z,83.50
2024-02-11T10:37:01.334Z,54.30
2024-02-11T10:40:06.431Z,24.20
2024-02-11T10:43:10.268Z,27.00
2024-02-11T10:46:11.333Z,31.20
2024-02-11T10:49:12.440Z,77.90
2024-02-11T10:52:17.158Z,59.60
2024-02-11T10:55:22.877Z,38.50
2024-02-11T10:58:29.967Z,55.80
2024-02-11T11:01:33.329Z,38.00
2024-02-11T11:04:34.856Z,24.50
2024-02-11T11:07:39.501Z,65.50
2024-02-11T11:10:41.043Z,60.70
2024-02-11T11:13:42.425Z,50.60
2024-02-11T11:16:47.147Z,54.30
2024-02-11T11:19:53.005Z,77.90
2024-02-11T11:22:58.847Z,37.10
2024-02-11T11:25:59.915Z,19.30
2024-02-11T11:29:04.694Z,21.60
2024-02-11T11:32:11.193Z,38.10
2024-02-11T11:35:17.851Z,45.70
2024-02-11T11:38:22.671Z,33.90
2024-02-11T11:41:25.036Z,26.60
2024-02-11T11:44:26.172Z,16.30
2024-02-11T11:47:28.937Z,23.70
2024-02-11T11:50:29.991Z,19.20
2024-02-11T11:53:31.139Z,44.00
2024-02-11T11:56:32.224Z,24.50
2024-02-11T11:59:33.285Z,34.90
2024-02-11T12:02:35.885Z,35.50
2024-02-11T12:05:37.159Z,82.00
2024-02-11T12:08:39.278Z,31.40
2024-02-11T12:11:49.182Z,22.30
2024-02-11T12:14:50.933Z,21.50
2024-02-11T12:17:52.180Z,17.90
2024-02-11T12:20:54.660Z,29.40
2024-02-11T12:23:55.723Z,24.50
2024-02-11T12:26:59.524Z,17.90
2024-02-11T12:30:01.780Z,25.10
2024-02-11T12:33:04.384Z,18.30
2024-02-11T12:36:12.875Z,19.20
2024-02-11T12:39:13.868Z,14.30
2024-02-11T12:42:17.428Z,19.90
2024-02-11T12:45:18.749Z,19.00
2024-02-11T12:48:20.777Z,14.00
2024-02-11T12:51:21.825Z,18.00
2024-02-11T12:54:23.018Z,15.80
2024-02-11T12:57:23.966Z,15.50
2024-02-11T13:00:25.334Z,15.20
2024-02-11T13:03:26.647Z,16.10
2024-02-11T13:06:27.610Z,19.40
2024-02-11T13:09:28.580Z,24.40
2024-02-11T13:12:29.848Z,20.50
2024-02-11T13:15:30.829Z,21.60
2024-02-11T13:18:32.402Z,16.20
2024-02-11T13:21:35.097Z,19.50
2024-02-11T13:24:36.258Z,20.70
2024-02-11T13:27:43.656Z,15.80
2024-02-11T13:30:46.184Z,17.10
2024-02-11T13:33:47.304Z,21.80
2024-02-11T13:36:53.957Z,25.00
2024-02-11T13:39:57.804Z,20.40
2024-02-11T13:43:00.135Z,15.40
2024-02-11T13:46:01.147Z,18.50
2024-02-11T13:49:02.305Z,15.00
2024-02-11T13:52:03.669Z,15.70
2024-02-11T13:55:06.490Z,19.80
2024-02-11T13:58:07.556Z,18.40
2024-02-11T14:01:12.898Z,15.70
2024-02-11T14:04:14.078Z,13.90
2024-02-11T14:07:16.020Z,17.80
2024-02-11T14:10:17.079Z,15.20
2024-02-11T14:13:20.358Z,15.00
2024-02-11T14:16:21.397Z,18.10
2024-02-11T14:19:23.794Z,30.60
2024-02-11T14:22:24.908Z,27.40
2024-02-11T14:25:25.895Z,16.90
2024-02-11T14:28:26.939Z,16.20
2024-02-11T14:31:28.035Z,12.50
2024-02-11T14:34:31.390Z,14.00
2024-02-11T14:37:32.357Z,16.10
2024-02-11T14:40:33.982Z,17.00
2024-02-11T14:43:38.501Z,11.50
2024-02-11T14:46:40.434Z,18.30
2024-02-11T14:49:44.036Z,16.00
2024-02-11T14:52:45.161Z,19.20
2024-02-11T14:55:46.338Z,25.60
2024-02-11T14:58:48.027Z,21.10
2024-02-11T15:01:49.171Z,14.10
2024-02-11T15:04:50.713Z,18.10
2024-02-11T15:07:52.146Z,16.40
2024-02-11T15:10:54.086Z,21.10
2024-02-11T15:13:55.185Z,20.70
2024-02-11T15:16:56.272Z,17.40
2024-02-11T15:20:00.396Z,15.80
2024-02-11T15:23:01.472Z,16.10
2024-02-11T15:26:03.662Z,48.40
2024-02-11T15:29:04.772Z,37.00
2024-02-11T15:32:08.259Z,55.90
2024-02-11T15:35:09.437Z,32.00
2024-02-11T15:38:10.575Z,15.40
2024-02-11T15:41:11.659Z,16.40
2024-02-11T15:44:13.460Z,13.90
2024-02-11T15:47:14.968Z,14.70
2024-02-11T15:50:16.982Z,12.70
2024-02-11T15:53:18.142Z,16.50
2024-02-11T15:56:19.975Z,21.60
2024-02-11T15:59:21.107Z,19.90
2024-02-11T16:02:22.142Z,18.10
2024-02-11T16:05:24.446Z,18.60
2024-02-11T16:08:25.958Z,18.50
2024-02-11T16:11:27.085Z,26.00
2024-02-11T16:14:28.393Z,38.80
2024-02-11T16:17:37.274Z,35.80
2024-02-11T16:20:41.566Z,23.70
2024-02-11T16:23:44.345Z,21.10
2024-02-11T16:26:45.405Z,45.60
2024-02-11T16:29:46.390Z,36.80
2024-02-11T16:32:48.406Z,19.60
2024-02-11T16:35:49.669Z,19.10
2024-02-11T16:38:52.120Z,30.10
2024-02-11T16:41:53.140Z,34.80
2024-02-11T16:44:55.918Z,28.50
2024-02-11T16:47:58.693Z,23.70
2024-02-11T16:51:00.453Z,50.50
2024-02-11T16:54:01.780Z,24.40
2024-02-11T16:57:03.095Z,29.40
2024-02-11T17:00:04.776Z,41.10
2024-02-11T17:03:05.858Z,58.60
2024-02-11T17:06:07.854Z,68.00
2024-02-11T17:09:09.769Z,40.80
2024-02-11T17:12:13.705Z,37.10
2024-02-11T17:15:15.097Z,29.20
2024-02-11T17:18:16.279Z,28.70
2024-02-11T17:21:17.526Z,28.00
2024-02-11T17:24:18.779Z,23.40
2024-02-11T17:27:19.907Z,22.50
2024-02-11T17:30:20.979Z,27.70
2024-02-11T17:33:24.536Z,28.80
2024-02-11T17:36:25.757Z,36.20
2024-02-11T17:39:27.030Z,32.70
2024-02-11T17:42:28.034Z,44.80
2024-02-11T17:45:29.337Z,39.10
2024-02-11T17:48:30.621Z,48.80
2024-02-11T17:51:33.675Z,40.50
2024-02-11T17:54:38.079Z,40.50
2024-02-11T17:57:41.534Z,38.20
2024-02-11T18:00:53.238Z,43.10
2024-02-11T18:04:00.070Z,54.50
2024-02-11T18:07:01.089Z,57.60
2024-02-11T18:10:03.381Z,76.50
2024-02-11T18:13:04.788Z,123.50
2024-02-11T18:16:06.621Z,78.00
2024-02-11T18:19:09.363Z,71.10
2024-02-11T18:22:10.405Z,64.90
2024-02-11T18:25:23.908Z,51.10
2024-02-11T18:28:35.058Z,41.80
2024-02-11T18:31:36.082Z,52.00
2024-02-11T18:34:38.314Z,49.10
2024-02-11T18:37:39.277Z,44.60
2024-02-11T18:40:40.280Z,43.30
2024-02-11T18:43:42.010Z,27.40
2024-02-11T18:46:43.943Z,30.30
2024-02-11T18:49:44.999Z,45.00
2024-02-11T18:52:46.472Z,49.10
2024-02-11T18:55:48.098Z,37.30
2024-02-11T18:58:50.271Z,42.10
2024-02-11T19:01:51.265Z,48.80
2024-02-11T19:04:52.898Z,58.70
2024-02-11T19:07:54.719Z,56.80
2024-02-11T19:10:55.702Z,53.20
2024-02-11T19:13:58.695Z,44.90
2024-02-11T19:17:00.146Z,48.00
2024-02-11T19:20:02.504Z,36.40
2024-02-11T19:23:05.431Z,36.30
2024-02-11T19:26:06.410Z,51.70
2024-02-11T19:29:10.688Z,31.30
2024-02-11T19:32:12.306Z,30.60
2024-02-11T19:35:14.784Z,26.40
2024-02-11T19:38:15.882Z,21.70
2024-02-11T19:41:17.262Z,17.50
2024-02-11T19:44:19.285Z,21.10
2024-02-11T19:47:20.940Z,21.20
2024-02-11T19:50:22.062Z,23.60
2024-02-11T19:53:34.196Z,22.60
2024-02-11T19:56:39.337Z,16.90
2024-02-11T19:59:40.326Z,19.40
2024-02-11T20:02:41.307Z,29.30
2024-02-11T20:05:43.360Z,62.90
2024-02-11T20:08:46.908Z,40.90
2024-02-11T20:11:48.169Z,43.50
2024-02-11T20:14:49.222Z,47.90
2024-02-11T20:17:50.863Z,47.80
2024-02-11T20:20:54.892Z,38.60
2024-02-11T20:23:57.263Z,30.80
2024-02-11T20:26:58.210Z,43.40
2024-02-11T20:29:59.367Z,60.60
2024-02-11T20:33:04.491Z,32.00
2024-02-11T20:36:07.695Z,20.30
2024-02-11T20:39:11.263Z,20.70
2024-02-11T20:42:12.253Z,20.50
2024-02-11T20:45:18.102Z,82.30
2024-02-11T20:48:19.300Z,48.90
2024-02-11T20:51:21.250Z,25.30
2024-02-11T20:54:23.091Z,18.10
2024-02-11T20:57:24.194Z,17.50
2024-02-11T21:00:27.309Z,16.20
2024-02-11T21:03:28.532Z,35.70
2024-02-11T21:06:29.582Z,31.50
2024-02-11T21:09:31.045Z,29.50
2024-02-11T21:12:32.012Z,20.70
2024-02-11T21:15:34.717Z,18.30
2024-02-11T21:18:36.603Z,16.80
2024-02-11T21:21:38.296Z,16.10
2024-02-11T21:24:41.121Z,38.60
2024-02-11T21:27:49.006Z,20.80
2024-02-11T21:31:04.951Z,15.60
2024-02-11T21:34:10.220Z,13.30
2024-02-11T21:37:11.196Z,12.00
2024-02-11T21:40:14.525Z,30.00
2024-02-11T21:43:15.461Z,44.80
2024-02-11T21:46:18.365Z,28.90
2024-02-11T21:49:19.343Z,18.10
2024-02-11T21:52:21.227Z,9.90
2024-02-11T21:55:22.190Z,9.90
2024-02-11T21:58:23.222Z,13.20
2024-02-11T22:01:24.224Z,14.80
2024-02-11T22:04:25.335Z,102.90
2024-02-11T22:07:26.444Z,37.50
2024-02-11T22:10:27.456Z,35.40
2024-02-11T22:13:30.483Z,16.00
2024-02-11T22:16:31.461Z,16.00
2024-02-11T22:19:32.464Z,15.50
2024-02-11T22:22:33.569Z,11.70
2024-02-11T22:25:34.768Z,59.00
2024-02-11T22:28:35.771Z,75.10
2024-02-11T22:31:38.628Z,44.40
2024-02-11T22:34:40.125Z,24.00
2024-02-11T22:37:41.125Z,25.40
2024-02-11T22:40:42.109Z,30.60
2024-02-11T22:43:45.897Z,31.70
2024-02-11T22:46:46.883Z,42.70
2024-02-11T22:49:48.984Z,82.20
2024-02-11T22:52:51.285Z,56.40
2024-02-11T22:55:52.322Z,44.90
2024-02-11T22:58:53.295Z,18.10
2024-02-11T23:01:54.257Z,18.20
2024-02-11T23:04:55.468Z,13.40
2024-02-11T23:07:56.637Z,15.40
2024-02-11T23:10:57.732Z,17.90
2024-02-11T23:13:58.854Z,19.70
2024-02-11T23:17:00.544Z,13.80
2024-02-11T23:20:07.554Z,9.70
2024-02-11T23:23:08.702Z,21.10
2024-02-11T23:26:09.681Z,8.50
2024-02-11T23:29:10.922Z,7.90
2024-02-11T23:32:12.717Z,7.90
2024-02-11T23:35:14.998Z,7.10
2024-02-11T23:38:19.538Z,10.40
2024-02-11T23:41:21.805Z,29.00
2024-02-11T23:44:22.778Z,28.50
2024-02-11T23:47:24.381Z,16.30
2024-02-11T23:50:25.461Z,14.50
2024-02-11T23:53:29.487Z,10.40
2024-02-11T23:56:32.550Z,12.10
2024-02-11T23:59:34.227Z,12.50
